Time;durP1;ratioP1;P1;durP2;ratioP2;P2;SDS_P1;SDS_P2;PMS_P1;PMS_P2;Temp;Humidity;BMP_temperature;BMP_pressure;BME280_temperature;BME280_humidity;BME280_pressure;Samples;Min_cycle;Max_cycle;Signal;HPM_P1;HPM_P2
2023/12/25 00:18:19;;;;;;;4.05;3.65;;;;;;;21.17;55.70;99487.53;41674365;28;20049;-70
2023/12/25 00:38:23;;;;;;;5.05;3.97;;;;;;;21.08;55.72;99473.38;41685994;28;20044;-71
2023/12/25 00:58:25;;;;;;;4.18;3.78;;;;;;;21.06;55.60;99501.66;41689330;28;20657;-69
2023/12/25 01:18:25;;;;;;;5.40;3.80;;;;;;;21.05;55.58;99534.22;41695467;28;20036;-70
2023/12/25 01:38:28;;;;;;;6.13;3.50;;;;;;;21.01;56.14;99531.03;41683952;28;20373;-70
2023/12/25 01:58:29;;;;;;;6.03;3.75;;;;;;;20.95;56.13;99542.94;41689766;28;20077;-70
2023/12/25 02:18:29;;;;;;;4.72;3.45;;;;;;;20.94;56.16;99551.78;41691017;28;20046;-70
2023/12/25 02:38:30;;;;;;;3.78;3.35;;;;;;;20.95;55.66;99542.09;41688715;28;20562;-71
2023/12/25 02:58:30;;;;;;;4.95;3.70;;;;;;;20.93;55.91;99573.00;41669249;28;20045;-70
2023/12/25 03:18:31;;;;;;;4.82;3.28;;;;;;;20.88;55.74;99581.28;41643021;28;21705;-70
2023/12/25 03:38:31;;;;;;;3.47;2.95;;;;;;;20.83;55.99;99567.72;41649290;28;20037;-71
2023/12/25 03:58:34;;;;;;;3.47;3.03;;;;;;;20.85;55.72;99564.94;41660798;28;20678;-69
2023/12/25 04:18:34;;;;;;;3.05;2.67;;;;;;;20.82;55.66;99559.97;41655566;28;20045;-70
2023/12/25 04:38:35;;;;;;;2.70;2.47;;;;;;;20.76;55.92;99559.53;41646442;28;20060;-70
2023/12/25 04:58:37;;;;;;;4.32;2.33;;;;;;;20.79;55.61;99546.09;41608710;28;20055;-68
2023/12/25 05:18:37;;;;;;;2.75;2.00;;;;;;;21.04;55.00;99545.72;41690786;28;20048;-68
2023/12/25 05:38:38;;;;;;;3.45;2.00;;;;;;;21.58;53.73;99562.75;41690627;28;20516;-68
2023/12/25 05:58:38;;;;;;;2.63;1.90;;;;;;;21.59;54.01;99585.50;41693770;28;20068;-68
2023/12/25 06:18:39;;;;;;;2.85;2.58;;;;;;;21.65;54.03;99596.44;41683499;28;20124;-68
2023/12/25 06:38:39;;;;;;;3.35;3.03;;;;;;;21.67;54.12;99619.03;41684604;28;20049;-68
2023/12/25 06:58:39;;;;;;;3.25;2.95;;;;;;;21.72;54.15;99642.31;41696239;28;20044;-69
2023/12/25 07:18:40;;;;;;;16.20;3.67;;;;;;;21.80;53.63;99660.91;41695903;28;20044;-71
2023/12/25 07:38:41;;;;;;;7.53;1.98;;;;;;;20.43;44.89;99684.25;41662204;28;20385;-67
2023/12/25 07:58:43;;;;;;;7.32;3.50;;;;;;;21.63;48.28;99711.66;41663987;28;20143;-71
2023/12/25 08:18:43;;;;;;;12.98;5.15;;;;;;;21.99;51.18;99738.28;41710767;28;20042;-73
2023/12/25 08:38:43;;;;;;;11.35;6.18;;;;;;;21.83;50.00;99731.75;41702279;28;20057;-68
2023/12/25 08:58:44;;;;;;;12.45;5.30;;;;;;;22.35;49.76;99759.59;41680583;28;20481;-69
2023/12/25 09:18:44;;;;;;;16.23;5.50;;;;;;;22.58;51.87;99768.03;41665761;28;20485;-66
2023/12/25 09:38:45;;;;;;;13.35;5.72;;;;;;;22.61;52.63;99759.03;41681760;28;20076;-67
2023/12/25 09:58:46;;;;;;;13.63;5.47;;;;;;;22.83;52.88;99760.47;41674921;28;20124;-67
2023/12/25 10:18:47;;;;;;;9.07;4.95;;;;;;;22.86;52.93;99783.94;41669851;28;20046;-67
2023/12/25 10:38:48;;;;;;;12.30;6.30;;;;;;;21.94;48.01;99727.34;41644227;28;20141;-67
2023/12/25 10:58:50;;;;;;;9.68;5.05;;;;;;;22.20;51.28;99725.78;41667632;28;20076;-68
2023/12/25 11:18:50;;;;;;;9.10;5.35;;;;;;;22.36;51.51;99741.00;41679897;28;20048;-69
2023/12/25 11:38:56;;;;;;;8.98;5.25;;;;;;;22.37;51.74;99741.84;41661978;28;20076;-68
2023/12/25 11:58:57;;;;;;;9.88;5.93;;;;;;;22.43;51.56;99732.56;41651653;28;20488;-68
2023/12/25 12:18:57;;;;;;;9.48;5.32;;;;;;;22.47;51.41;99733.91;41666927;28;20041;-68
2023/12/25 12:38:58;;;;;;;14.95;5.07;;;;;;;22.69;50.94;99756.47;41645847;28;20045;-70
2023/12/25 12:58:59;;;;;;;11.73;4.63;;;;;;;22.79;51.52;99759.94;41657480;28;21063;-68
2023/12/25 13:19:00;;;;;;;13.77;4.90;;;;;;;22.85;52.88;99798.94;41648885;28;20037;-67
2023/12/25 13:39:04;;;;;;;13.05;4.45;;;;;;;22.78;53.02;99783.84;41678254;28;20435;-66
2023/12/25 13:59:06;;;;;;;8.70;4.80;;;;;;;22.60;51.70;99781.94;41674481;28;20037;-67
2023/12/25 14:19:08;;;;;;;16.70;5.05;;;;;;;22.77;51.60;99788.28;41647998;28;20045;-68
2023/12/25 14:39:11;;;;;;;13.18;5.00;;;;;;;22.76;53.97;99806.91;41665953;28;20165;-70
2023/12/25 14:59:12;;;;;;;13.75;4.75;;;;;;;22.67;55.12;99812.06;41660473;28;20033;-68
2023/12/25 15:19:13;;;;;;;10.35;5.45;;;;;;;22.08;52.47;99848.16;41639359;28;20048;-71
2023/12/25 15:39:14;;;;;;;10.65;5.38;;;;;;;22.11;54.39;99865.53;41638634;28;20037;-68
2023/12/25 15:59:14;;;;;;;11.25;5.18;;;;;;;22.12;54.22;99912.84;41647299;28;20037;-68
2023/12/25 16:19:14;;;;;;;8.77;4.63;;;;;;;21.98;54.32;99929.06;41639892;28;20037;-69
2023/12/25 16:39:16;;;;;;;10.27;4.47;;;;;;;21.98;54.42;99971.22;41629058;28;20048;-69
2023/12/25 16:59:16;;;;;;;7.28;4.07;;;;;;;21.88;55.09;99958.03;41636174;28;20045;-67
2023/12/25 17:19:17;;;;;;;5.85;4.22;;;;;;;21.79;54.93;99985.16;41673713;28;20040;-69
2023/12/25 17:39:17;;;;;;;6.18;4.28;;;;;;;21.80;55.07;99986.84;41669217;28;20037;-69
2023/12/25 17:59:18;;;;;;;6.50;3.95;;;;;;;21.69;56.05;99979.84;41670549;28;20496;-69
2023/12/25 18:19:19;;;;;;;5.57;4.00;;;;;;;21.71;55.73;99997.19;41675095;28;20087;-69
2023/12/25 18:39:22;;;;;;;4.30;3.35;;;;;;;21.72;55.87;100013.88;41680484;28;20037;-68
2023/12/25 18:59:22;;;;;;;9.10;3.63;;;;;;;21.74;55.68;100036.47;41673943;28;20037;-69
2023/12/25 19:19:23;;;;;;;4.13;3.30;;;;;;;;;;41686540;28;20037;-70
2023/12/25 19:39:23;;;;;;;7.97;3.92;;;;;;;21.69;56.82;100043.09;41676908;28;20047;-67
2023/12/25 19:59:25;;;;;;;5.15;3.70;;;;;;;21.61;56.88;100053.47;41673111;28;20585;-66
2023/12/25 20:19:25;;;;;;;6.45;3.90;;;;;;;21.59;56.68;100043.03;41643588;28;20056;-66
2023/12/25 20:39:26;;;;;;;9.18;4.30;;;;;;;21.55;56.52;100062.69;41651370;28;20037;-66
2023/12/25 20:59:28;;;;;;;7.25;3.92;;;;;;;21.41;56.15;100091.03;41652324;28;20149;-65
2023/12/25 21:19:28;;;;;;;6.35;4.13;;;;;;;21.44;55.80;100088.13;41686298;28;20095;-66
2023/12/25 21:39:30;;;;;;;16.10;5.13;;;;;;;21.41;55.82;100104.19;41689133;28;20131;-66
2023/12/25 21:59:30;;;;;;;9.45;5.15;;;;;;;21.38;56.12;100112.34;41685893;28;20132;-65
2023/12/25 22:19:31;;;;;;;6.90;4.30;;;;;;;21.37;56.65;100100.16;41665958;28;20083;-66
2023/12/25 22:39:31;;;;;;;7.10;4.63;;;;;;;21.31;56.64;100098.00;41666662;28;20119;-66
2023/12/25 22:59:32;;;;;;;5.68;4.30;;;;;;;21.27;56.95;100097.41;41671552;28;20041;-64
2023/12/25 23:19:32;;;;;;;6.10;4.20;;;;;;;21.27;57.23;100099.22;41686467;28;20044;-65
2023/12/25 23:39:33;;;;;;;5.93;4.10;;;;;;;21.23;57.41;100085.47;41657913;28;20049;-64
2023/12/25 23:59:37;;;;;;;5.93;3.83;;;;;;;21.20;56.89;100077.84;41669873;28;20057;-65
